Terminal Aerodrome Forecast
Issued by NWS

Home | Current Version | Previous Version | Text Only | Print | Product List | Glossary On
Versions: 1 2 3 4 5 6 7 8 9 10 11 12 13 14
530
FTUS43 KOAX 212320
TAFBFF
TAF
KBFF 212320Z 2200/2224 16005KT P6SM SCT100
     FM220300 32007KT P6SM BKN100
     FM221600 30014G25KT P6SM SCT100=

USA.gov is the U.S. government's official web portal to all federal, state and local government web resources and services.